createdAt,value
2022-10-23T00:01:15.453Z,98569.63
2022-10-23T00:03:41.936Z,98562.22
2022-10-23T00:06:08.827Z,98565.59
2022-10-23T00:08:35.436Z,98565.72
2022-10-23T00:11:06.701Z,98576.00
2022-10-23T00:13:33.099Z,98570.72
2022-10-23T00:15:59.493Z,98568.72
2022-10-23T00:18:25.974Z,98565.53
2022-10-23T00:20:52.477Z,98566.09
2022-10-23T00:23:18.857Z,98574.38
2022-10-23T00:25:45.189Z,98576.44
2022-10-23T00:28:11.600Z,98585.34
2022-10-23T00:30:37.993Z,98580.91
2022-10-23T00:33:04.485Z,98571.56
2022-10-23T00:35:31.023Z,98573.81
2022-10-23T00:37:57.456Z,98571.53
2022-10-23T00:40:23.924Z,98575.28
2022-10-23T00:42:50.344Z,98569.16
2022-10-23T00:45:23.576Z,98577.66
2022-10-23T00:47:50.225Z,98573.03
2022-10-23T00:50:22.836Z,98568.00
2022-10-23T00:52:52.938Z,98557.22
2022-10-23T00:55:21.734Z,98547.97
2022-10-23T00:57:50.026Z,98551.75
2022-10-23T01:00:26.402Z,98543.78
2022-10-23T01:02:54.589Z,98536.50
2022-10-23T01:05:30.323Z,98531.19
2022-10-23T01:08:02.889Z,98535.13
2022-10-23T01:10:40.041Z,98526.03
2022-10-23T01:13:22.813Z,98523.25
2022-10-23T01:16:07.318Z,98531.78
2022-10-23T01:18:51.053Z,98532.78
2022-10-23T01:21:28.684Z,98528.00
2022-10-23T01:24:19.519Z,98524.38
2022-10-23T01:27:13.374Z,98528.53
2022-10-23T01:29:45.931Z,98531.34
2022-10-23T01:32:25.105Z,98530.56
2022-10-23T01:35:08.842Z,98530.41
2022-10-23T01:37:43.985Z,98525.09
2022-10-23T01:40:19.911Z,98526.63
2022-10-23T01:42:53.090Z,98521.63
2022-10-23T01:45:28.455Z,98517.69
2022-10-23T01:47:56.526Z,98521.31
2022-10-23T01:50:25.469Z,98514.09
2022-10-23T01:52:52.031Z,98511.84
2022-10-23T01:55:18.753Z,98514.88
2022-10-23T01:57:47.394Z,98515.28
2022-10-23T02:00:19.679Z,98509.72
2022-10-23T02:02:49.762Z,98508.03
2022-10-23T02:05:21.128Z,98500.78
2022-10-23T02:07:48.134Z,98499.94
2022-10-23T02:10:15.765Z,98495.72
2022-10-23T02:12:57.388Z,98495.59
2022-10-23T02:15:33.602Z,98484.84
2022-10-23T02:18:18.148Z,98484.16
2022-10-23T02:20:53.422Z,98483.31
2022-10-23T02:23:29.020Z,98481.63
2022-10-23T02:26:18.531Z,98478.13
2022-10-23T02:28:51.892Z,98482.59
2022-10-23T02:31:21.626Z,98476.31
2022-10-23T02:33:48.095Z,98474.78
2022-10-23T02:36:16.255Z,98467.59
2022-10-23T02:38:44.246Z,98477.53
2022-10-23T02:41:38.958Z,98470.25
2022-10-23T02:44:29.731Z,98471.13
2022-10-23T02:47:02.201Z,98463.28
2022-10-23T02:49:49.002Z,98451.69
2022-10-23T02:52:28.693Z,98445.69
2022-10-23T02:54:57.810Z,98456.06
2022-10-23T02:57:35.407Z,98460.53
2022-10-23T03:00:16.773Z,98453.66
2022-10-23T03:03:24.808Z,98442.91
2022-10-23T03:05:51.308Z,98445.41
2022-10-23T03:08:17.815Z,98448.19
2022-10-23T03:10:44.653Z,98459.94
2022-10-23T03:13:11.765Z,98462.28
2022-10-23T03:15:38.235Z,98461.75
2022-10-23T03:18:04.965Z,98454.63
2022-10-23T03:20:31.402Z,98451.16
2022-10-23T03:22:57.804Z,98451.59
2022-10-23T03:25:24.168Z,98444.31
2022-10-23T03:27:50.553Z,98445.44
2022-10-23T03:30:17.732Z,98452.56
2022-10-23T03:32:44.550Z,98450.03
2022-10-23T03:35:11.106Z,98446.53
2022-10-23T03:37:37.471Z,98444.72
2022-10-23T03:40:04.601Z,98456.16
2022-10-23T03:42:31.031Z,98451.53
2022-10-23T03:44:57.403Z,98439.41
2022-10-23T03:47:23.904Z,98430.06
2022-10-23T03:49:50.292Z,98434.97
2022-10-23T03:52:16.749Z,98440.13
2022-10-23T03:54:43.222Z,98439.69
2022-10-23T03:57:09.612Z,98443.91
2022-10-23T03:59:36.013Z,98434.81
2022-10-23T04:02:02.536Z,98443.59
2022-10-23T04:04:29.021Z,98437.84
2022-10-23T04:06:55.388Z,98435.16
2022-10-23T04:09:21.773Z,98439.06
2022-10-23T04:11:48.256Z,98440.03
2022-10-23T04:14:14.812Z,98430.25
2022-10-23T04:16:41.419Z,98435.16
2022-10-23T04:19:07.811Z,98434.06
2022-10-23T04:21:34.194Z,98426.38
2022-10-23T04:24:00.781Z,98426.78
2022-10-23T04:26:27.168Z,98429.78
2022-10-23T04:28:53.605Z,98426.97
2022-10-23T04:31:20.254Z,98435.38
2022-10-23T04:33:46.782Z,98440.44
2022-10-23T04:36:13.185Z,98437.84
2022-10-23T04:38:39.543Z,98439.22
2022-10-23T04:41:06.471Z,98440.72
2022-10-23T04:43:32.917Z,98447.16
2022-10-23T04:45:59.422Z,98436.47
2022-10-23T04:48:28.417Z,98427.97
2022-10-23T04:50:57.941Z,98426.03
2022-10-23T04:53:25.327Z,98420.72
2022-10-23T04:55:53.677Z,98424.31
2022-10-23T04:58:20.410Z,98426.13
2022-10-23T05:00:47.775Z,98418.91
2022-10-23T05:03:15.167Z,98430.25
2022-10-23T05:05:42.370Z,98433.00
2022-10-23T05:08:09.124Z,98439.28
2022-10-23T05:10:35.634Z,98434.97
2022-10-23T05:13:03.254Z,98427.59
2022-10-23T05:15:29.768Z,98407.31
2022-10-23T05:18:01.415Z,98409.81
2022-10-23T05:20:32.891Z,98411.19
2022-10-23T05:23:00.852Z,98397.78
2022-10-23T05:25:28.813Z,98399.16
2022-10-23T05:27:55.153Z,98403.34
2022-10-23T05:30:21.660Z,98405.72
2022-10-23T05:32:48.346Z,98405.31
2022-10-23T05:35:19.348Z,98396.50
2022-10-23T05:37:47.944Z,98388.41
2022-10-23T05:40:14.467Z,98395.34
2022-10-23T05:42:41.767Z,98391.03
2022-10-23T05:45:08.944Z,98389.34
2022-10-23T05:47:35.467Z,98394.69
2022-10-23T05:50:02.099Z,98393.47
2022-10-23T05:52:28.486Z,98392.47
2022-10-23T05:54:54.860Z,98387.72
2022-10-23T05:57:21.263Z,98389.00
2022-10-23T05:59:47.641Z,98385.06
2022-10-23T06:02:14.037Z,98387.44
2022-10-23T06:04:40.421Z,98382.16
2022-10-23T06:07:06.777Z,98379.34
2022-10-23T06:09:33.120Z,98379.75
2022-10-23T06:12:01.596Z,98380.59
2022-10-23T06:14:28.099Z,98372.91
2022-10-23T06:16:54.558Z,98373.88
2022-10-23T06:19:20.933Z,98376.69
2022-10-23T06:21:47.390Z,98367.47
2022-10-23T06:24:13.758Z,98363.56
2022-10-23T06:26:40.129Z,98360.78
2022-10-23T06:29:06.699Z,98365.81
2022-10-23T06:31:33.106Z,98371.00
2022-10-23T06:34:00.186Z,98368.22
2022-10-23T06:36:27.244Z,98358.72
2022-10-23T06:38:53.749Z,98364.44
2022-10-23T06:41:21.968Z,98355.78
2022-10-23T06:43:49.977Z,98357.28
2022-10-23T06:46:17.706Z,98359.94
2022-10-23T06:48:44.925Z,98356.00
2022-10-23T06:51:17.268Z,98358.38
2022-10-23T06:53:45.005Z,98353.03
2022-10-23T06:56:11.747Z,98348.66
2022-10-23T06:58:39.732Z,98357.63
2022-10-23T07:01:08.891Z,98343.00
2022-10-23T07:03:35.884Z,98350.38
2022-10-23T07:06:04.434Z,98350.94
2022-10-23T07:08:31.229Z,98352.56
2022-10-23T07:10:58.070Z,98354.78
2022-10-23T07:13:24.947Z,98347.00
2022-10-23T07:15:51.679Z,98351.44
2022-10-23T07:18:19.400Z,98354.97
2022-10-23T07:20:49.279Z,98347.66
2022-10-23T07:23:16.282Z,98346.25
2022-10-23T07:25:42.760Z,98343.91
2022-10-23T07:28:09.173Z,98342.03
2022-10-23T07:30:35.560Z,98353.38
2022-10-23T07:33:01.998Z,98344.00
2022-10-23T07:35:28.423Z,98344.47
2022-10-23T07:37:54.780Z,98336.63
2022-10-23T07:40:21.764Z,98341.97
2022-10-23T07:42:48.123Z,98335.47
2022-10-23T07:45:14.547Z,98343.94
2022-10-23T07:47:44.232Z,98343.50
2022-10-23T07:50:10.989Z,98341.41
2022-10-23T07:52:37.360Z,98338.63
2022-10-23T07:55:04.055Z,98330.78
2022-10-23T07:57:30.507Z,98332.25
2022-10-23T07:59:56.946Z,98321.72
2022-10-23T08:02:23.379Z,98327.19
2022-10-23T08:04:50.318Z,98328.88
2022-10-23T08:07:16.987Z,98333.00
2022-10-23T08:09:43.415Z,98333.47
2022-10-23T08:12:10.167Z,98327.31
2022-10-23T08:14:36.525Z,98332.38
2022-10-23T08:17:04.741Z,98320.94
2022-10-23T08:19:31.243Z,98329.44
2022-10-23T08:21:57.631Z,98328.81
2022-10-23T08:24:24.017Z,98317.41
2022-10-23T08:26:50.577Z,98311.38
2022-10-23T08:29:17.378Z,98315.09
2022-10-23T08:31:44.014Z,98319.31
2022-10-23T08:34:10.478Z,98321.31
2022-10-23T08:36:39.083Z,98312.75
2022-10-23T08:39:06.342Z,98313.41
2022-10-23T08:41:36.274Z,98322.06
2022-10-23T08:44:25.906Z,98316.16
2022-10-23T08:46:59.227Z,98309.72
2022-10-23T08:49:42.644Z,98314.44
2022-10-23T08:52:24.274Z,98316.16
2022-10-23T08:54:53.648Z,98311.19
2022-10-23T08:57:23.508Z,98304.09
2022-10-23T08:59:58.986Z,98309.47
2022-10-23T09:02:46.455Z,98307.38
2022-10-23T09:05:17.793Z,98306.34
2022-10-23T09:08:06.036Z,98306.53
2022-10-23T09:10:56.515Z,98322.63
2022-10-23T09:13:50.672Z,98324.47
2022-10-23T09:16:23.010Z,98321.09
2022-10-23T09:18:50.114Z,98305.66
2022-10-23T09:21:17.191Z,98307.00
2022-10-23T09:23:43.700Z,98283.97
2022-10-23T09:26:16.453Z,98282.28
2022-10-23T09:29:19.081Z,98279.88
2022-10-23T09:31:50.568Z,98283.19
2022-10-23T09:34:20.916Z,98282.91
2022-10-23T09:37:03.713Z,98274.31
2022-10-23T09:39:35.140Z,98270.41
2022-10-23T09:42:13.895Z,98266.78
2022-10-23T09:44:49.569Z,98272.06
2022-10-23T09:47:20.666Z,98279.84
2022-10-23T09:49:50.357Z,98293.75
2022-10-23T09:52:17.634Z,98288.50
2022-10-23T09:54:51.471Z,98286.97
2022-10-23T09:57:17.785Z,98296.06
2022-10-23T09:59:44.488Z,98293.19
2022-10-23T10:02:34.296Z,98287.25
2022-10-23T10:05:29.242Z,98304.19
2022-10-23T10:08:02.044Z,98311.66
2022-10-23T10:10:37.556Z,98302.34
2022-10-23T10:13:18.856Z,98293.50
2022-10-23T10:15:54.627Z,98279.63
2022-10-23T10:18:32.768Z,98279.03
2022-10-23T10:21:21.078Z,98281.78
2022-10-23T10:24:00.417Z,98268.41
2022-10-23T10:26:36.856Z,98258.19
2022-10-23T10:29:09.421Z,98269.31
2022-10-23T10:31:38.427Z,98259.75
2022-10-23T10:34:39.636Z,98245.78
2022-10-23T10:37:31.073Z,98247.88
2022-10-23T10:40:10.044Z,98247.31
2022-10-23T10:43:10.461Z,98248.34
2022-10-23T10:45:47.704Z,98240.00
2022-10-23T10:48:59.546Z,98232.22
2022-10-23T10:51:37.800Z,98238.28
2022-10-23T10:54:34.329Z,98244.75
2022-10-23T10:57:09.212Z,98242.88
2022-10-23T10:59:42.411Z,98233.53
2022-10-23T11:02:31.783Z,98223.75
2022-10-23T11:05:34.607Z,98217.59
2022-10-23T11:08:12.183Z,98220.41
2022-10-23T11:10:42.367Z,98219.50
2022-10-23T11:13:40.258Z,98210.56
2022-10-23T11:16:26.619Z,98219.84
2022-10-23T11:19:21.168Z,98197.81
2022-10-23T11:22:09.948Z,98189.47
2022-10-23T11:24:55.852Z,98182.25
2022-10-23T11:27:52.159Z,98175.66
2022-10-23T11:30:23.860Z,98175.81
2022-10-23T11:33:15.268Z,98186.72
2022-10-23T11:35:58.013Z,98191.22
2022-10-23T11:38:35.011Z,98188.75
2022-10-23T11:41:22.278Z,98181.75
2022-10-23T11:44:03.408Z,98197.28
2022-10-23T11:46:31.205Z,98200.69
2022-10-23T11:48:58.080Z,98197.72
2022-10-23T11:51:36.886Z,98194.44
2022-10-23T11:54:13.272Z,98188.91
2022-10-23T11:57:10.248Z,98183.50
2022-10-23T11:59:45.533Z,98171.31
2022-10-23T12:02:37.432Z,98169.63
2022-10-23T12:05:30.769Z,98157.78
2022-10-23T12:08:00.373Z,98157.28
2022-10-23T12:10:30.872Z,98152.63
2022-10-23T12:12:58.865Z,98146.84
2022-10-23T12:15:26.151Z,98148.66
2022-10-23T12:17:54.789Z,98151.44
2022-10-23T12:20:30.656Z,98150.16
2022-10-23T12:23:30.287Z,98137.41
2022-10-23T12:26:24.565Z,98130.06
2022-10-23T12:29:02.359Z,98128.50
2022-10-23T12:31:50.150Z,98132.25
2022-10-23T12:34:32.297Z,98127.28
2022-10-23T12:37:04.660Z,98107.47
2022-10-23T12:39:37.468Z,98102.16
2022-10-23T12:42:04.743Z,98110.50
2022-10-23T12:44:31.436Z,98105.25
2022-10-23T12:47:00.962Z,98099.66
2022-10-23T12:49:31.952Z,98097.25
2022-10-23T12:51:59.522Z,98098.28
2022-10-23T12:54:27.053Z,98085.94
2022-10-23T12:56:54.473Z,98076.66
2022-10-23T12:59:26.329Z,98070.78
2022-10-23T13:01:54.534Z,98068.13
2022-10-23T13:04:31.263Z,98060.38
2022-10-23T13:07:04.031Z,98053.56
2022-10-23T13:09:36.009Z,98055.69
2022-10-23T13:12:05.008Z,98054.38
2022-10-23T13:14:44.518Z,98054.22
2022-10-23T13:17:11.689Z,98038.25
2022-10-23T13:19:38.403Z,98041.63
2022-10-23T13:22:16.836Z,98046.47
2022-10-23T13:24:43.757Z,98033.78
2022-10-23T13:27:43.153Z,98020.38
2022-10-23T13:30:32.404Z,98003.69
2022-10-23T13:32:59.654Z,98012.41
2022-10-23T13:35:26.766Z,98010.31
2022-10-23T13:37:53.247Z,97995.09
2022-10-23T13:40:26.095Z,97998.41
2022-10-23T13:42:54.165Z,98004.31
2022-10-23T13:45:24.697Z,97993.88
2022-10-23T13:47:51.223Z,98000.06
2022-10-23T13:50:18.906Z,98003.50
2022-10-23T13:52:46.386Z,97998.72
2022-10-23T13:55:24.335Z,97999.56
2022-10-23T13:57:51.343Z,97997.03
2022-10-23T14:00:18.206Z,97980.59
2022-10-23T14:02:44.895Z,97991.16
2022-10-23T14:05:12.084Z,97990.78
2022-10-23T14:07:38.492Z,97989.50
2022-10-23T14:10:05.460Z,97996.75
2022-10-23T14:12:39.187Z,98006.25
2022-10-23T14:15:06.276Z,97995.13
2022-10-23T14:17:34.743Z,97994.53
2022-10-23T14:20:03.072Z,97993.25
2022-10-23T14:22:31.590Z,97987.44
2022-10-23T14:24:57.987Z,97989.16
2022-10-23T14:27:24.454Z,97986.22
2022-10-23T14:29:50.876Z,97988.66
2022-10-23T14:32:17.369Z,97981.66
2022-10-23T14:34:45.787Z,97983.06
2022-10-23T14:37:12.241Z,97982.66
2022-10-23T14:39:38.652Z,97972.25
2022-10-23T14:42:05.148Z,97972.94
2022-10-23T14:44:31.664Z,97969.25
2022-10-23T14:46:59.489Z,97974.00
2022-10-23T14:49:25.935Z,97974.19
2022-10-23T14:51:52.321Z,97970.94
2022-10-23T14:54:18.784Z,97965.22
2022-10-23T14:56:45.266Z,97955.31
2022-10-23T14:59:13.272Z,97951.78
2022-10-23T15:01:45.397Z,97950.13
2022-10-23T15:04:15.200Z,97943.72
2022-10-23T15:06:42.313Z,97941.81
2022-10-23T15:09:08.966Z,97936.16
2022-10-23T15:11:35.329Z,97922.88
2022-10-23T15:14:01.901Z,97914.19
2022-10-23T15:16:28.493Z,97906.94
2022-10-23T15:18:54.963Z,97897.19
2022-10-23T15:21:21.375Z,97890.34
2022-10-23T15:23:48.471Z,97896.19
2022-10-23T15:26:20.992Z,97895.94
2022-10-23T15:28:52.138Z,97898.25
2022-10-23T15:31:40.904Z,97905.72
2022-10-23T15:34:13.507Z,97902.34
2022-10-23T15:36:40.221Z,97901.38
2022-10-23T15:39:08.878Z,97905.06
2022-10-23T15:41:36.949Z,97897.66
2022-10-23T15:44:04.901Z,97909.84
2022-10-23T15:46:31.363Z,97904.69
2022-10-23T15:48:57.943Z,97906.72
2022-10-23T15:51:24.817Z,97898.22
2022-10-23T15:53:52.151Z,97875.84
2022-10-23T15:56:18.532Z,97882.47
2022-10-23T15:58:45.727Z,97869.00
2022-10-23T16:01:12.439Z,97879.34
2022-10-23T16:03:39.091Z,97876.81
2022-10-23T16:06:08.425Z,97870.63
2022-10-23T16:08:35.799Z,97868.59
2022-10-23T16:11:03.325Z,97855.34
2022-10-23T16:13:29.735Z,97855.13
2022-10-23T16:15:56.160Z,97855.56
2022-10-23T16:18:23.308Z,97860.34
2022-10-23T16:20:55.427Z,97855.13
2022-10-23T16:23:22.321Z,97849.34
2022-10-23T16:25:48.753Z,97860.28
2022-10-23T16:28:15.170Z,97856.16
2022-10-23T16:30:42.479Z,97856.59
2022-10-23T16:33:09.769Z,97858.88
2022-10-23T16:35:36.920Z,97873.13
2022-10-23T16:38:03.731Z,97870.66
2022-10-23T16:40:30.467Z,97866.72
2022-10-23T16:42:58.330Z,97861.53
2022-10-23T16:45:24.796Z,97859.91
2022-10-23T16:47:51.190Z,97875.59
2022-10-23T16:50:17.762Z,97876.63
2022-10-23T16:52:44.341Z,97874.78
2022-10-23T16:55:10.964Z,97850.56
2022-10-23T16:57:37.618Z,97859.88
2022-10-23T17:00:05.380Z,97859.28
2022-10-23T17:02:32.203Z,97845.63
2022-10-23T17:04:58.774Z,97831.34
2022-10-23T17:07:25.382Z,97820.97
2022-10-23T17:09:51.738Z,97822.66
2022-10-23T17:12:18.181Z,97831.78
2022-10-23T17:14:44.588Z,97828.03
2022-10-23T17:17:10.996Z,97820.38
2022-10-23T17:19:45.573Z,97819.75
2022-10-23T17:22:13.267Z,97828.00
2022-10-23T17:24:41.083Z,97825.75
2022-10-23T17:27:08.069Z,97819.94
2022-10-23T17:29:34.644Z,97821.19
2022-10-23T17:32:01.275Z,97830.31
2022-10-23T17:34:27.709Z,97837.94
2022-10-23T17:36:55.209Z,97839.63
2022-10-23T17:39:26.326Z,97845.19
2022-10-23T17:41:53.178Z,97845.16
2022-10-23T17:44:19.807Z,97846.84
2022-10-23T17:46:46.411Z,97864.25
2022-10-23T17:49:13.276Z,97879.53
2022-10-23T17:51:39.693Z,97887.19
2022-10-23T17:54:08.969Z,97894.25
2022-10-23T17:56:37.589Z,97903.53
2022-10-23T17:59:10.200Z,97910.63
2022-10-23T18:01:36.843Z,97902.94
2022-10-23T18:04:06.705Z,97921.47
2022-10-23T18:06:36.485Z,97935.53
2022-10-23T18:09:05.030Z,97958.03
2022-10-23T18:11:34.561Z,97956.44
2022-10-23T18:14:01.580Z,97947.78
2022-10-23T18:16:28.872Z,97943.91
2022-10-23T18:18:55.931Z,97933.50
2022-10-23T18:21:24.202Z,97931.81
2022-10-23T18:23:51.340Z,97946.69
2022-10-23T18:26:21.098Z,97940.28
2022-10-23T18:28:49.886Z,97954.28
2022-10-23T18:31:18.503Z,97964.31
2022-10-23T18:33:45.792Z,97977.19
2022-10-23T18:36:23.348Z,97980.25
2022-10-23T18:38:50.489Z,97970.78
2022-10-23T18:41:18.823Z,97970.00
2022-10-23T18:43:45.819Z,97965.69
2022-10-23T18:46:13.319Z,97948.94
2022-10-23T18:48:40.162Z,97948.94
2022-10-23T18:51:23.254Z,97948.69
2022-10-23T18:53:50.625Z,97943.63
2022-10-23T18:56:22.729Z,97935.84
2022-10-23T18:58:50.999Z,97918.88
2022-10-23T19:01:19.050Z,97894.34
2022-10-23T19:03:45.954Z,97840.75
2022-10-23T19:06:12.486Z,97833.91
2022-10-23T19:08:40.592Z,97853.50
2022-10-23T19:11:07.968Z,97847.03
2022-10-23T19:13:39.099Z,97853.28
2022-10-23T19:16:16.365Z,97870.72
2022-10-23T19:18:46.996Z,97881.47
2022-10-23T19:21:14.022Z,97878.50
2022-10-23T19:23:42.283Z,97887.00
2022-10-23T19:26:11.927Z,97894.16
2022-10-23T19:28:41.070Z,97896.78
2022-10-23T19:31:09.782Z,97912.50
2022-10-23T19:33:38.416Z,97905.16
2022-10-23T19:36:07.912Z,97918.59
2022-10-23T19:38:36.521Z,97924.19
2022-10-23T19:41:03.915Z,97933.81
2022-10-23T19:43:30.441Z,97936.31
2022-10-23T19:45:59.325Z,97921.44
2022-10-23T19:48:25.727Z,97919.00
2022-10-23T19:50:52.191Z,97920.28
2022-10-23T19:53:18.588Z,97914.16
2022-10-23T19:55:44.988Z,97912.38
2022-10-23T19:58:11.393Z,97918.38
2022-10-23T20:00:37.855Z,97929.09
2022-10-23T20:03:04.479Z,97926.03
2022-10-23T20:05:31.800Z,97913.38
2022-10-23T20:07:58.349Z,97917.94
2022-10-23T20:10:25.844Z,97925.56
2022-10-23T20:12:56.655Z,97929.91
2022-10-23T20:15:28.924Z,97932.44
2022-10-23T20:17:55.261Z,97938.50
2022-10-23T20:20:21.713Z,97950.56
2022-10-23T20:22:52.059Z,97948.31
2022-10-23T20:25:21.210Z,97955.69
2022-10-23T20:27:47.566Z,97955.69
2022-10-23T20:30:13.996Z,97967.56
2022-10-23T20:32:40.362Z,97955.16
2022-10-23T20:35:07.771Z,97963.25
2022-10-23T20:37:34.139Z,97949.03
2022-10-23T20:40:00.509Z,97947.50
2022-10-23T20:42:26.871Z,97936.97
2022-10-23T20:44:53.217Z,97942.94
2022-10-23T20:47:19.575Z,97943.31
2022-10-23T20:49:47.762Z,97948.13
2022-10-23T20:52:14.217Z,97944.44
2022-10-23T20:54:40.594Z,97946.66
2022-10-23T20:57:07.096Z,97940.69
2022-10-23T20:59:34.088Z,97946.22
2022-10-23T21:02:00.560Z,97948.78
2022-10-23T21:04:28.407Z,97943.78
2022-10-23T21:07:10.077Z,97939.19
2022-10-23T21:09:37.754Z,97941.50
2022-10-23T21:12:04.520Z,97946.63
2022-10-23T21:14:31.002Z,97936.47
2022-10-23T21:16:57.550Z,97943.88
2022-10-23T21:19:23.916Z,97939.97
2022-10-23T21:21:50.294Z,97945.19
2022-10-23T21:24:17.315Z,97938.41
2022-10-23T21:26:44.871Z,97934.94
2022-10-23T21:29:20.250Z,97948.75
2022-10-23T21:31:59.155Z,97950.38
2022-10-23T21:34:26.634Z,97957.53
2022-10-23T21:37:11.957Z,97949.28
2022-10-23T21:39:39.283Z,97939.97
2022-10-23T21:42:05.813Z,97959.47
2022-10-23T21:44:32.708Z,97953.41
2022-10-23T21:46:59.119Z,97955.00
2022-10-23T21:49:25.480Z,97956.41
2022-10-23T21:51:52.075Z,97955.97
2022-10-23T21:54:18.514Z,97963.22
2022-10-23T21:56:47.669Z,97973.13
2022-10-23T21:59:16.284Z,97970.56
2022-10-23T22:01:45.306Z,97957.47
2022-10-23T22:04:14.135Z,97959.06
2022-10-23T22:06:41.731Z,97967.00
2022-10-23T22:09:09.320Z,97966.88
2022-10-23T22:11:35.688Z,97969.38
2022-10-23T22:14:02.193Z,97959.66
2022-10-23T22:16:30.357Z,97966.50
2022-10-23T22:18:57.181Z,97963.63
2022-10-23T22:21:26.708Z,97966.31
2022-10-23T22:23:57.737Z,97973.75
2022-10-23T22:26:40.162Z,97964.63
2022-10-23T22:29:09.309Z,97963.59
2022-10-23T22:31:36.611Z,97968.09
2022-10-23T22:34:18.519Z,97957.78
2022-10-23T22:36:53.193Z,97962.97
2022-10-23T22:39:19.608Z,97956.31
2022-10-23T22:41:47.443Z,97960.03
2022-10-23T22:44:14.795Z,97962.84
2022-10-23T22:46:42.300Z,97972.25
2022-10-23T22:49:09.026Z,97958.59
2022-10-23T22:51:36.728Z,97966.59
2022-10-23T22:54:03.136Z,97976.84
2022-10-23T22:56:30.288Z,97985.50
2022-10-23T22:58:57.073Z,97970.94
2022-10-23T23:01:32.861Z,97985.94
2022-10-23T23:04:08.734Z,97986.97
2022-10-23T23:06:46.763Z,97988.91
2022-10-23T23:09:17.878Z,97993.81
2022-10-23T23:11:51.524Z,98005.94
2022-10-23T23:14:22.098Z,98014.81
2022-10-23T23:16:50.502Z,98009.53
2022-10-23T23:19:17.048Z,98012.47
2022-10-23T23:21:43.448Z,98011.19
2022-10-23T23:24:11.559Z,98007.38
2022-10-23T23:26:37.935Z,98013.13
2022-10-23T23:29:04.306Z,98010.81
2022-10-23T23:31:30.694Z,98011.66
2022-10-23T23:33:57.191Z,98011.81
2022-10-23T23:36:26.544Z,98008.94
2022-10-23T23:38:53.836Z,98002.81
2022-10-23T23:41:21.532Z,98002.91
2022-10-23T23:43:48.788Z,97988.56
2022-10-23T23:46:15.823Z,97989.66
2022-10-23T23:48:47.265Z,97991.63
2022-10-23T23:51:19.017Z,97991.41
2022-10-23T23:53:45.453Z,97977.31
2022-10-23T23:56:11.838Z,97983.41
2022-10-23T23:58:38.241Z,97981.44
